createdAt,value
2023-01-11T00:00:23.420Z,101005.28
2023-01-11T00:02:54.695Z,101003.03
2023-01-11T00:05:21.007Z,100998.03
2023-01-11T00:07:47.327Z,101002.28
2023-01-11T00:10:13.699Z,100994.31
2023-01-11T00:12:40.060Z,100992.19
2023-01-11T00:15:07.096Z,100988.56
2023-01-11T00:17:33.529Z,100989.84
2023-01-11T00:19:59.918Z,100979.06
2023-01-11T00:22:27.147Z,100976.88
2023-01-11T00:24:53.472Z,100976.13
2023-01-11T00:27:19.800Z,100961.75
2023-01-11T00:29:46.203Z,100958.09
2023-01-11T00:32:12.527Z,100964.53
2023-01-11T00:34:38.849Z,100951.53
2023-01-11T00:37:05.275Z,100948.66
2023-01-11T00:39:31.589Z,100946.44
2023-01-11T00:42:16.843Z,100948.53
2023-01-11T00:45:01.677Z,100938.44
2023-01-11T00:47:46.823Z,100937.72
2023-01-11T00:50:13.157Z,100936.94
2023-01-11T00:52:39.495Z,100930.44
2023-01-11T00:55:06.020Z,100927.47
2023-01-11T00:57:32.472Z,100921.72
2023-01-11T00:59:58.805Z,100906.63
2023-01-11T01:02:25.143Z,100909.50
2023-01-11T01:04:51.534Z,100911.63
2023-01-11T01:07:17.857Z,100897.88
2023-01-11T01:09:44.169Z,100900.75
2023-01-11T01:12:10.482Z,100900.75
2023-01-11T01:14:36.863Z,100905.03
2023-01-11T01:17:03.964Z,100917.91
2023-01-11T01:19:30.664Z,100903.53
2023-01-11T01:21:57.136Z,100910.69
2023-01-11T01:24:23.597Z,100901.31
2023-01-11T01:26:49.929Z,100912.06
2023-01-11T01:29:16.263Z,100923.56
2023-01-11T01:31:42.836Z,100917.81
2023-01-11T01:34:09.399Z,100917.06
2023-01-11T01:36:35.727Z,100909.09
2023-01-11T01:39:02.090Z,100904.00
2023-01-11T01:41:28.446Z,100895.38
2023-01-11T01:43:55.694Z,100900.41
2023-01-11T01:46:22.615Z,100893.88
2023-01-11T01:49:01.255Z,100884.50
2023-01-11T01:51:28.762Z,100880.16
2023-01-11T01:53:55.738Z,100883.03
2023-01-11T01:56:26.387Z,100874.41
2023-01-11T01:58:54.406Z,100875.78
2023-01-11T02:01:39.708Z,100875.78
2023-01-11T02:04:07.627Z,100860.59
2023-01-11T02:06:34.028Z,100854.94
2023-01-11T02:09:02.221Z,100859.84
2023-01-11T02:11:31.211Z,100846.94
2023-01-11T02:14:02.029Z,100850.47
2023-01-11T02:16:28.351Z,100843.97
2023-01-11T02:19:11.682Z,100834.63
2023-01-11T02:21:37.948Z,100822.38
2023-01-11T02:24:09.240Z,100820.13
2023-01-11T02:26:55.580Z,100808.00
2023-01-11T02:29:24.686Z,100803.72
2023-01-11T02:31:53.653Z,100800.22
2023-01-11T02:34:37.960Z,100796.69
2023-01-11T02:37:12.375Z,100798.91
2023-01-11T02:39:44.735Z,100798.28
2023-01-11T02:42:29.536Z,100793.25
2023-01-11T02:45:01.617Z,100802.66
2023-01-11T02:47:33.880Z,100791.88
2023-01-11T02:50:06.686Z,100790.38
2023-01-11T02:52:37.200Z,100785.41
2023-01-11T02:55:03.546Z,100783.91
2023-01-11T02:57:29.878Z,100776.69
2023-01-11T02:59:58.079Z,100770.94
2023-01-11T03:02:24.561Z,100763.69
2023-01-11T03:04:50.885Z,100769.44
2023-01-11T03:07:28.179Z,100752.84
2023-01-11T03:10:08.367Z,100755.72
2023-01-11T03:12:54.669Z,100750.63
2023-01-11T03:15:25.458Z,100751.25
2023-01-11T03:18:10.723Z,100759.25
2023-01-11T03:20:38.143Z,100746.25
2023-01-11T04:52:32.184Z,100642.56
2023-01-11T04:54:58.527Z,100640.44
2023-01-11T04:57:25.325Z,100634.69
2023-01-11T04:59:51.688Z,100638.28
2023-01-11T05:02:18.116Z,100639.03
2023-01-11T05:04:44.498Z,100640.53
2023-01-11T05:07:11.027Z,100639.13
2023-01-11T05:09:37.395Z,100640.53
2023-01-11T05:12:03.737Z,100636.25
2023-01-11T05:14:30.069Z,100632.00
2023-01-11T05:16:56.415Z,100626.16
2023-01-11T05:19:22.751Z,100630.50
2023-01-11T05:21:49.069Z,100626.16
2023-01-11T05:24:15.692Z,100618.25
2023-01-11T05:26:42.411Z,100623.28
2023-01-11T05:29:09.455Z,100621.88
2023-01-11T05:31:36.279Z,100619.72
2023-01-11T05:34:02.716Z,100609.00
2023-01-11T05:36:29.031Z,100601.75
2023-01-11T05:38:55.706Z,100604.72
2023-01-11T05:41:23.470Z,100604.72
2023-01-11T05:44:08.633Z,100594.63
2023-01-11T05:46:35.090Z,100598.97
2023-01-11T05:49:01.645Z,100606.75
2023-01-11T05:51:30.435Z,100600.38
2023-01-11T05:53:57.131Z,100603.25
2023-01-11T05:56:23.452Z,100597.50
2023-01-11T05:58:50.031Z,100597.50
2023-01-11T06:01:16.475Z,100587.47
2023-01-11T06:03:42.855Z,100587.47
2023-01-11T06:06:09.184Z,100593.31
2023-01-11T06:08:35.515Z,100578.19
2023-01-11T06:11:01.837Z,100565.97
2023-01-11T06:13:28.242Z,100579.00
2023-01-11T06:15:54.509Z,100569.66
2023-01-11T06:18:20.995Z,100569.66
2023-01-11T06:20:53.632Z,100565.38
2023-01-11T06:23:20.056Z,100563.22
2023-01-11T06:25:46.380Z,100561.75
2023-01-11T06:28:12.700Z,100555.38
2023-01-11T06:30:39.047Z,100558.16
2023-01-11T06:33:06.183Z,100557.47
2023-01-11T06:35:39.354Z,100560.44
2023-01-11T06:38:05.991Z,100564.13
2023-01-11T06:40:32.348Z,100551.91
2023-01-11T06:42:58.866Z,100553.31
2023-01-11T06:45:25.243Z,100550.53
2023-01-11T06:47:51.567Z,100560.53
2023-01-11T06:50:17.937Z,100570.66
2023-01-11T06:52:44.320Z,100574.03
2023-01-11T06:55:10.766Z,100571.94
2023-01-11T06:57:37.127Z,100576.91
2023-01-11T07:00:03.729Z,100580.47
2023-01-11T07:02:30.318Z,100577.59
2023-01-11T07:04:56.728Z,100582.63
2023-01-11T07:07:23.113Z,100580.47
2023-01-11T07:09:49.492Z,100587.63
2023-01-11T07:12:15.961Z,100581.25
2023-01-11T07:14:42.353Z,100573.81
2023-01-11T07:17:08.689Z,100585.19
2023-01-11T07:19:35.053Z,100576.13
2023-01-11T07:22:01.602Z,100587.94
2023-01-11T07:24:28.199Z,100581.78
2023-01-11T07:26:56.263Z,100587.34
2023-01-11T07:29:22.632Z,100579.75
2023-01-11T07:31:49.026Z,100578.84
2023-01-11T07:34:15.410Z,100589.78
2023-01-11T07:36:41.728Z,100586.72
2023-01-11T07:39:08.139Z,100593.88
2023-01-11T07:41:53.239Z,100585.50
2023-01-11T07:44:19.602Z,100586.44
2023-01-11T07:46:46.077Z,100589.09
2023-01-11T07:49:12.460Z,100571.81
2023-01-11T07:51:38.814Z,100575.91
2023-01-11T07:54:05.142Z,100574.16
2023-01-11T07:56:31.510Z,100574.47
2023-01-11T07:58:57.863Z,100573.16
2023-01-11T08:01:24.195Z,100574.97
2023-01-11T08:03:51.044Z,100570.81
2023-01-11T08:06:17.422Z,100578.19
2023-01-11T08:08:43.777Z,100571.88
2023-01-11T08:11:30.031Z,100570.53
2023-01-11T08:14:15.050Z,100569.94
2023-01-11T08:16:41.400Z,100567.00
2023-01-11T08:19:07.745Z,100573.25
2023-01-11T08:21:34.082Z,100562.84
2023-01-11T08:24:00.433Z,100580.94
2023-01-11T08:26:26.825Z,100565.00
2023-01-11T08:28:53.295Z,100572.00
2023-01-11T08:31:19.655Z,100570.50
2023-01-11T08:33:46.024Z,100567.72
2023-01-11T08:36:12.677Z,100571.91
2023-01-11T08:38:39.050Z,100567.56
2023-01-11T08:41:10.620Z,100571.50
2023-01-11T08:43:46.114Z,100565.25
2023-01-11T08:46:12.479Z,100571.91
2023-01-11T08:48:38.845Z,100561.69
2023-01-11T08:51:05.179Z,100566.78
2023-01-11T08:53:31.825Z,100555.78
2023-01-11T08:55:58.148Z,100552.56
2023-01-11T08:58:25.348Z,100548.78
2023-01-11T09:00:51.671Z,100548.78
2023-01-11T09:03:18.784Z,100546.69
2023-01-11T09:05:45.122Z,100552.38
2023-01-11T09:08:11.435Z,100543.06
2023-01-11T09:10:37.785Z,100546.19
2023-01-11T09:13:04.124Z,100548.47
2023-01-11T09:15:30.462Z,100551.44
2023-01-11T09:17:56.798Z,100541.31
2023-01-11T09:20:23.148Z,100550.81
2023-01-11T09:22:52.649Z,100544.44
2023-01-11T09:25:19.466Z,100547.22
2023-01-11T09:27:46.004Z,100546.91
2023-01-11T09:30:12.683Z,100542.47
2023-01-11T09:32:39.016Z,100545.22
2023-01-11T09:35:06.167Z,100545.84
2023-01-11T09:37:32.580Z,100536.50
2023-01-11T09:40:01.954Z,100542.16
2023-01-11T09:42:36.754Z,100533.44
2023-01-11T09:45:05.735Z,100527.59
2023-01-11T09:47:40.882Z,100529.03
2023-01-11T09:50:11.524Z,100528.94
2023-01-11T09:52:41.009Z,100536.16
2023-01-11T09:55:11.607Z,100528.84
2023-01-11T09:57:44.062Z,100523.09
2023-01-11T10:00:19.507Z,100524.56
2023-01-11T10:03:04.766Z,100525.97
2023-01-11T10:05:31.822Z,100520.88
2023-01-11T10:14:01.245Z,100502.88
2023-01-11T10:18:37.592Z,100505.03
2023-01-11T10:19:40.400Z,100498.53
2023-01-11T10:22:32.527Z,100497.84
2023-01-11T10:25:07.519Z,100494.25
2023-01-11T10:27:36.235Z,100495.66
2023-01-11T10:30:24.073Z,100495.66
2023-01-11T10:32:57.859Z,100502.88
2023-01-11T10:35:45.732Z,100487.84
2023-01-11T10:38:40.854Z,100492.00
2023-01-11T10:41:15.793Z,100477.88
2023-01-11T10:43:43.871Z,100485.25
2023-01-11T10:46:12.407Z,100482.66
2023-01-11T10:48:42.424Z,100481.44
2023-01-11T10:51:17.409Z,100482.09
2023-01-11T10:53:50.746Z,100477.72
2023-01-11T10:56:24.959Z,100482.00
2023-01-11T10:59:15.667Z,100470.72
2023-01-11T11:01:49.055Z,100465.16
2023-01-11T11:04:33.989Z,100460.75
2023-01-11T11:07:00.278Z,100460.75
2023-01-11T11:09:29.499Z,100458.44
2023-01-11T11:11:59.343Z,100447.53
2023-01-11T11:14:34.670Z,100442.66
2023-01-11T11:17:13.386Z,100448.81
2023-01-11T11:19:41.226Z,100446.19
2023-01-11T11:22:09.533Z,100441.84
2023-01-11T11:24:37.177Z,100437.78
2023-01-11T11:27:07.176Z,100428.78
2023-01-11T11:29:33.568Z,100431.81
2023-01-11T11:32:00.320Z,100434.19
2023-01-11T11:34:27.434Z,100432.69
2023-01-11T11:36:53.784Z,100429.75
2023-01-11T11:39:28.318Z,100428.28
2023-01-11T11:42:04.150Z,100428.53
2023-01-11T11:44:30.474Z,100431.56
2023-01-11T11:47:04.283Z,100425.06
2023-01-11T11:49:31.636Z,100425.22
2023-01-11T11:51:58.613Z,100425.88
2023-01-11T11:54:26.079Z,100422.78
2023-01-11T11:56:54.292Z,100417.31
2023-01-11T11:59:21.037Z,100420.38
2023-01-11T12:01:48.444Z,100402.34
2023-01-11T12:04:18.652Z,100404.38
2023-01-11T12:06:50.887Z,100395.94
2023-01-11T12:09:21.179Z,100393.06
2023-01-11T12:11:47.535Z,100390.63
2023-01-11T12:14:17.746Z,100391.22
2023-01-11T12:16:44.431Z,100390.69
2023-01-11T12:19:29.415Z,100388.69
2023-01-11T12:22:14.823Z,100382.91
2023-01-11T12:24:41.169Z,100383.81
2023-01-11T12:27:20.331Z,100368.28
2023-01-11T12:30:01.902Z,100381.56
2023-01-11T12:32:42.296Z,100385.53
2023-01-11T12:35:12.477Z,100384.34
2023-01-11T12:37:57.585Z,100381.47
2023-01-11T12:40:34.556Z,100375.63
2023-01-11T12:43:07.239Z,100370.53
2023-01-11T12:45:33.583Z,100369.94
2023-01-11T12:48:13.302Z,100368.59
2023-01-11T12:50:50.767Z,100364.25
2023-01-11T12:53:22.810Z,100360.03
2023-01-11T12:56:07.955Z,100353.53
2023-01-11T12:58:36.006Z,100361.56
2023-01-11T13:01:20.532Z,100357.22
2023-01-11T13:03:49.863Z,100368.88
2023-01-11T13:06:17.617Z,100366.66
2023-01-11T13:08:55.526Z,100364.81
2023-01-11T13:11:36.908Z,100361.84
2023-01-11T13:14:06.237Z,100360.03
2023-01-11T13:16:38.427Z,100363.56
2023-01-11T13:19:07.471Z,100364.84
2023-01-11T13:21:52.831Z,100363.47
2023-01-11T13:24:27.254Z,100363.84
2023-01-11T13:26:54.654Z,100364.81
2023-01-11T13:29:24.619Z,100364.38
2023-01-11T13:31:51.063Z,100361.16
2023-01-11T13:34:25.289Z,100369.03
2023-01-11T13:36:52.829Z,100367.13
2023-01-11T13:39:22.044Z,100362.84
2023-01-11T13:41:49.096Z,100372.94
2023-01-11T13:44:18.642Z,100365.84
2023-01-11T13:47:03.011Z,100364.44
2023-01-11T13:49:34.808Z,100361.38
2023-01-11T13:52:03.996Z,100369.94
2023-01-11T13:54:41.875Z,100369.88
2023-01-11T13:57:10.906Z,100369.94
2023-01-11T13:59:41.357Z,100377.31
2023-01-11T14:02:26.137Z,100367.41
2023-01-11T14:04:58.474Z,100364.75
2023-01-11T14:07:43.676Z,100374.66
2023-01-11T14:10:19.664Z,100374.75
2023-01-11T14:12:49.981Z,100371.88
2023-01-11T14:15:19.536Z,100373.88
2023-01-11T14:17:51.485Z,100376.28
2023-01-11T14:20:20.433Z,100377.81
2023-01-11T14:23:07.450Z,100376.50
2023-01-11T14:25:36.715Z,100380.56
2023-01-11T14:28:12.078Z,100388.28
2023-01-11T14:30:55.226Z,100384.78
2023-01-11T14:33:28.795Z,100392.69
2023-01-11T14:36:11.519Z,100391.16
2023-01-11T14:38:41.869Z,100391.78
2023-01-11T14:41:11.831Z,100394.59
2023-01-11T14:43:43.896Z,100393.56
2023-01-11T14:46:19.946Z,100389.78
2023-01-11T14:48:49.323Z,100402.72
2023-01-11T14:51:23.823Z,100408.50
2023-01-11T14:53:54.571Z,100412.03
2023-01-11T14:56:39.664Z,100415.72
2023-01-11T14:59:06.688Z,100413.44
2023-01-11T15:02:06.748Z,100412.75
2023-01-11T15:04:33.941Z,100409.81
2023-01-11T15:07:00.360Z,100414.09
2023-01-11T15:09:45.395Z,100412.59
2023-01-11T15:12:12.334Z,100412.59
2023-01-11T15:14:38.753Z,100406.78
2023-01-11T15:17:23.875Z,100424.72
2023-01-11T15:19:51.307Z,100431.13
2023-01-11T15:22:43.950Z,100432.56
2023-01-11T15:25:26.500Z,100437.41
2023-01-11T15:27:52.874Z,100440.38
2023-01-11T15:30:31.167Z,100440.28
2023-01-11T15:33:16.363Z,100438.38
2023-01-11T15:36:02.429Z,100443.16
2023-01-11T15:38:37.181Z,100434.59
2023-01-11T15:41:23.824Z,100446.13
2023-01-11T15:44:08.825Z,100442.00
2023-01-11T15:46:54.409Z,100443.53
2023-01-11T15:49:21.259Z,100447.88
2023-01-11T15:51:53.608Z,100454.13
2023-01-11T15:54:35.020Z,100452.50
2023-01-11T15:57:12.248Z,100468.47
2023-01-11T15:59:56.777Z,100462.69
2023-01-11T16:02:42.124Z,100465.44
2023-01-11T16:05:21.437Z,100472.69
2023-01-11T16:07:57.728Z,100473.88
2023-01-11T16:10:29.689Z,100482.38
2023-01-11T16:13:05.210Z,100478.03
2023-01-11T16:15:43.512Z,100486.50
2023-01-11T16:18:14.508Z,100503.88
2023-01-11T16:20:42.028Z,100503.28
2023-01-11T16:23:08.880Z,100502.75
2023-01-11T16:25:36.767Z,100495.63
2023-01-11T16:28:03.104Z,100505.56
2023-01-11T16:30:29.464Z,100505.66
2023-01-11T16:33:22.205Z,100501.69
2023-01-11T16:35:48.578Z,100516.16
2023-01-11T16:38:18.626Z,100512.25
2023-01-11T16:40:49.706Z,100525.91
2023-01-11T16:43:23.193Z,100528.88
2023-01-11T16:45:50.232Z,100524.56
2023-01-11T16:48:20.668Z,100519.69
2023-01-11T16:50:56.638Z,100529.38
2023-01-11T16:53:24.180Z,100535.94
2023-01-11T16:55:54.508Z,100537.16
2023-01-11T16:58:22.498Z,100531.66
2023-01-11T17:01:01.753Z,100539.47
2023-01-11T17:03:31.559Z,100542.34
2023-01-11T17:06:04.088Z,100548.22
2023-01-11T17:08:33.204Z,100544.69
2023-01-11T17:11:18.047Z,100550.34
2023-01-11T17:13:54.951Z,100552.00
2023-01-11T17:16:22.383Z,100556.94
2023-01-11T17:18:48.758Z,100563.44
2023-01-11T17:21:16.908Z,100560.28
2023-01-11T17:23:44.690Z,100558.16
2023-01-11T17:26:15.006Z,100562.63
2023-01-11T17:28:43.611Z,100563.97
2023-01-11T17:31:10.267Z,100566.06
2023-01-11T17:33:36.615Z,100568.72
2023-01-11T17:36:02.946Z,100580.25
2023-01-11T17:38:29.311Z,100576.91
2023-01-11T17:40:56.712Z,100573.81
2023-01-11T17:43:42.443Z,100577.41
2023-01-11T17:46:09.651Z,100583.84
2023-01-11T17:48:36.063Z,100580.97
2023-01-11T17:51:02.782Z,100583.19
2023-01-11T17:53:29.119Z,100595.66
2023-01-11T17:55:58.943Z,100599.16
2023-01-11T17:58:31.866Z,100595.44
2023-01-11T18:01:00.982Z,100603.56
2023-01-11T18:03:27.355Z,100605.06
2023-01-11T18:05:53.700Z,100610.25
2023-01-11T18:08:20.281Z,100612.41
2023-01-11T18:10:55.914Z,100616.44
2023-01-11T18:13:26.308Z,100614.94
2023-01-11T18:15:52.641Z,100610.66
2023-01-11T18:18:38.337Z,100619.59
2023-01-11T18:21:06.256Z,100611.00
2023-01-11T18:23:32.590Z,100630.91
2023-01-11T18:26:17.655Z,100625.06
2023-01-11T18:28:44.146Z,100629.25
2023-01-11T18:31:10.486Z,100639.47
2023-01-11T18:33:36.835Z,100642.44
2023-01-11T18:36:03.427Z,100641.22
2023-01-11T18:38:33.569Z,100645.22
2023-01-11T18:41:20.355Z,100637.06
2023-01-11T18:43:46.689Z,100655.84
2023-01-11T18:46:13.104Z,100649.19
2023-01-11T18:48:39.461Z,100648.22
2023-01-11T18:51:05.845Z,100645.00
2023-01-11T18:53:32.173Z,100644.19
2023-01-11T18:55:58.503Z,100650.19
2023-01-11T18:58:24.833Z,100658.09
2023-01-11T19:00:51.164Z,100659.31
2023-01-11T19:03:17.546Z,100658.34
2023-01-11T19:05:43.925Z,100658.19
2023-01-11T19:08:10.270Z,100674.94
2023-01-11T19:10:36.638Z,100678.66
2023-01-11T19:13:03.020Z,100684.09
2023-01-11T19:15:29.409Z,100678.50
2023-01-11T19:17:55.825Z,100681.44
2023-01-11T19:20:22.191Z,100688.53
2023-01-11T19:22:48.865Z,100687.13
2023-01-11T19:25:15.379Z,100688.03
2023-01-11T19:27:41.818Z,100699.53
2023-01-11T19:30:08.385Z,100702.03
2023-01-11T19:32:34.720Z,100709.16
2023-01-11T19:35:01.457Z,100706.13
2023-01-11T19:37:27.924Z,100713.19
2023-01-11T19:39:54.272Z,100708.94
2023-01-11T19:42:21.022Z,100713.53
2023-01-11T19:44:47.350Z,100719.28
2023-01-11T19:47:15.654Z,100724.88
2023-01-11T19:49:42.272Z,100721.91
2023-01-11T19:52:13.172Z,100726.03
2023-01-11T19:54:41.678Z,100727.50
2023-01-11T19:57:08.740Z,100723.66
2023-01-11T19:59:35.090Z,100730.97
2023-01-11T20:02:01.423Z,100735.69
2023-01-11T20:04:27.831Z,100735.69
2023-01-11T20:06:55.018Z,100738.69
2023-01-11T20:09:21.571Z,100742.91
2023-01-11T20:11:49.277Z,100740.19
2023-01-11T20:14:16.215Z,100734.44
2023-01-11T20:16:42.543Z,100737.41
2023-01-11T20:19:08.866Z,100746.13
2023-01-11T20:21:35.233Z,100740.75
2023-01-11T20:24:01.932Z,100740.19
2023-01-11T20:26:30.538Z,100743.63
2023-01-11T20:28:57.016Z,100743.50
2023-01-11T20:31:27.869Z,100747.84
2023-01-11T20:33:54.777Z,100755.66
2023-01-11T20:36:21.356Z,100746.19
2023-01-11T20:38:47.680Z,100749.00
2023-01-11T20:41:34.949Z,100759.78
2023-01-11T20:44:01.588Z,100761.06
2023-01-11T20:46:28.206Z,100763.88
2023-01-11T20:48:54.561Z,100762.41
2023-01-11T20:51:20.919Z,100757.19
2023-01-11T20:53:47.331Z,100763.81
2023-01-11T20:56:13.789Z,100761.66
2023-01-11T20:58:40.137Z,100760.94
2023-01-11T21:01:06.938Z,100756.47
2023-01-11T21:03:33.284Z,100760.84
2023-01-11T21:06:05.961Z,100758.69
2023-01-11T21:08:32.400Z,100755.00
2023-01-11T21:11:05.352Z,100752.13
2023-01-11T21:13:31.820Z,100744.22
2023-01-11T21:15:58.197Z,100741.97
2023-01-11T21:18:24.647Z,100741.84
2023-01-11T21:20:51.088Z,100743.31
2023-01-11T21:23:17.421Z,100748.31
2023-01-11T21:25:43.779Z,100743.13
2023-01-11T21:28:10.137Z,100744.63
2023-01-11T21:30:36.470Z,100740.25
2023-01-11T21:33:02.832Z,100741.66
2023-01-11T21:35:29.390Z,100750.22
2023-01-11T21:37:55.729Z,100747.31
2023-01-11T21:40:22.072Z,100758.03
2023-01-11T21:42:48.408Z,100755.78
2023-01-11T21:45:14.848Z,100749.94
2023-01-11T21:47:43.476Z,100765.84
2023-01-11T21:50:10.204Z,100762.97
2023-01-11T21:52:36.598Z,100765.06
2023-01-11T21:55:02.934Z,100762.97
2023-01-11T21:57:29.302Z,100766.38
2023-01-11T21:59:55.661Z,100758.25
2023-01-11T22:02:22.020Z,100758.25
2023-01-11T22:04:48.671Z,100753.22
2023-01-11T22:07:15.103Z,100755.28
2023-01-11T22:09:53.380Z,100757.41
2023-01-11T22:12:27.877Z,100753.03
2023-01-11T22:14:54.266Z,100743.59
2023-01-11T22:17:20.629Z,100743.59
2023-01-11T22:19:46.972Z,100746.38
2023-01-11T22:22:13.328Z,100757.25
2023-01-11T22:24:39.663Z,100751.47
2023-01-11T22:27:06.052Z,100752.13
2023-01-11T22:29:32.461Z,100758.53
2023-01-11T22:32:01.325Z,100749.16
2023-01-11T22:34:27.726Z,100752.69
2023-01-11T22:36:54.398Z,100746.09
2023-01-11T22:39:20.811Z,100753.28
2023-01-11T22:41:48.219Z,100751.13
2023-01-11T22:44:14.652Z,100740.25
2023-01-11T22:46:41.022Z,100748.16
2023-01-11T22:49:07.475Z,100754.59
2023-01-11T22:51:34.076Z,100751.72
2023-01-11T22:54:00.459Z,100750.22
2023-01-11T22:56:26.832Z,100750.84
2023-01-11T22:58:53.477Z,100757.28
2023-01-11T23:01:20.793Z,100751.53
2023-01-11T23:03:47.182Z,100751.53
2023-01-11T23:06:15.732Z,100752.91
2023-01-11T23:08:42.477Z,100749.94
2023-01-11T23:11:15.609Z,100739.81
2023-01-11T23:13:54.969Z,100744.81
2023-01-11T23:16:21.744Z,100751.22
2023-01-11T23:18:48.386Z,100755.50
2023-01-11T23:21:15.655Z,100756.25
2023-01-11T23:23:41.987Z,100756.88
2023-01-11T23:26:08.454Z,100753.19
2023-01-11T23:28:34.902Z,100752.44
2023-01-11T23:31:06.884Z,100753.09
2023-01-11T23:33:33.214Z,100748.75
2023-01-11T23:35:59.604Z,100746.59
2023-01-11T23:38:25.939Z,100742.97
2023-01-11T23:41:10.886Z,100727.09
2023-01-11T23:43:38.531Z,100722.75
2023-01-11T23:46:23.643Z,100719.16
2023-01-11T23:48:50.151Z,100722.66
2023-01-11T23:51:16.588Z,100729.16
2023-01-11T23:53:42.922Z,100726.19
2023-01-11T23:56:09.281Z,100721.16
2023-01-11T23:58:35.609Z,100720.44
